createdAt,value
2022-11-15T00:00:11.848Z,66.30
2022-11-15T00:10:11.873Z,71.30
2022-11-15T00:20:11.883Z,77.60
2022-11-15T00:30:11.894Z,71.30
2022-11-15T00:40:11.883Z,75.10
2022-11-15T00:50:15.012Z,70.90
2022-11-15T01:00:11.905Z,68.70
2022-11-15T01:10:11.870Z,69.10
2022-11-15T01:20:11.907Z,69.70
2022-11-15T01:30:11.912Z,73.70
2022-11-15T01:40:12.025Z,73.30
2022-11-15T01:50:11.879Z,74.10
2022-11-15T02:00:11.890Z,64.20
2022-11-15T02:10:11.884Z,69.60
2022-11-15T02:20:11.897Z,71.10
2022-11-15T02:30:11.916Z,65.10
2022-11-15T02:40:11.930Z,52.90
2022-11-15T02:50:11.900Z,58.90
2022-11-15T03:00:11.930Z,66.90
2022-11-15T03:10:11.956Z,64.30
2022-11-15T03:20:11.942Z,62.40
2022-11-15T03:30:11.925Z,55.00
2022-11-15T03:40:11.945Z,67.10
2022-11-15T03:50:11.956Z,59.90
2022-11-15T04:00:11.923Z,60.90
2022-11-15T04:10:11.952Z,66.30
2022-11-15T04:20:11.932Z,64.20
2022-11-15T04:30:12.011Z,66.00
2022-11-15T04:40:11.978Z,69.70
2022-11-15T04:50:11.991Z,68.90
2022-11-15T05:00:11.972Z,66.00
2022-11-15T05:10:11.980Z,61.70
2022-11-15T05:20:11.955Z,58.50
2022-11-15T05:30:12.008Z,56.40
2022-11-15T05:40:11.982Z,60.50
2022-11-15T05:50:11.977Z,59.50
2022-11-15T06:00:12.001Z,59.70
2022-11-15T07:00:11.985Z,62.70
2022-11-15T07:10:11.992Z,58.90
2022-11-15T07:20:12.018Z,57.10
2022-11-15T07:30:14.504Z,56.00
2022-11-15T07:40:11.999Z,54.50
2022-11-15T07:50:12.029Z,54.00
2022-11-15T08:00:12.010Z,48.90
2022-11-15T08:20:12.016Z,33.90
2022-11-15T08:30:12.012Z,41.70
2022-11-15T08:40:12.025Z,44.70
2022-11-15T08:50:12.048Z,33.50
2022-11-15T09:00:12.053Z,39.70
2022-11-15T09:10:12.049Z,40.60
2022-11-15T09:20:12.052Z,41.90
2022-11-15T09:30:12.040Z,34.20
2022-11-15T09:40:12.036Z,24.30
2022-11-15T09:50:12.068Z,28.10
2022-11-15T10:00:43.956Z,27.20
2022-11-15T10:10:12.055Z,26.80
2022-11-15T10:20:12.054Z,25.00
2022-11-15T10:30:12.068Z,27.70
2022-11-15T10:40:12.057Z,28.90
2022-11-15T10:50:12.070Z,25.60
2022-11-15T11:00:12.109Z,45.20
2022-11-15T11:10:36.153Z,28.90
2022-11-15T11:20:12.116Z,26.00
2022-11-15T11:30:12.105Z,28.30
2022-11-15T11:40:12.083Z,31.40
2022-11-15T11:50:12.124Z,29.50
2022-11-15T12:00:12.150Z,28.00
2022-11-15T12:10:12.142Z,26.70
2022-11-15T12:20:12.165Z,27.00
2022-11-15T12:30:12.196Z,31.90
2022-11-15T12:40:12.166Z,31.10
2022-11-15T12:50:12.420Z,28.80
2022-11-15T13:00:12.218Z,28.50
2022-11-15T13:10:12.125Z,34.30
2022-11-15T13:20:12.152Z,30.30
2022-11-15T13:30:12.192Z,33.60
2022-11-15T13:50:12.511Z,36.00
2022-11-15T14:00:12.150Z,35.30
2022-11-15T14:10:12.154Z,32.80
2022-11-15T14:20:12.194Z,27.80
2022-11-15T14:30:12.165Z,33.20
2022-11-15T14:40:12.199Z,52.50
2022-11-15T14:50:12.220Z,40.80
2022-11-15T15:00:12.216Z,44.60
2022-11-15T15:10:38.310Z,44.10
2022-11-15T15:20:12.204Z,41.50
2022-11-15T15:30:12.267Z,42.80
2022-11-15T15:40:12.234Z,47.90
2022-11-15T15:50:12.244Z,53.00
2022-11-15T16:00:12.211Z,49.50
2022-11-15T16:10:12.228Z,51.30
2022-11-15T16:20:12.238Z,44.10
2022-11-15T16:30:12.255Z,50.30
2022-11-15T16:40:12.237Z,45.10
2022-11-15T16:50:12.257Z,45.50
2022-11-15T17:00:12.264Z,45.70
2022-11-15T17:10:12.239Z,41.50
2022-11-15T17:20:12.237Z,41.80
2022-11-15T17:30:12.232Z,47.90
2022-11-15T17:40:12.289Z,50.10
2022-11-15T17:50:12.262Z,58.40
2022-11-15T18:00:12.264Z,56.60
2022-11-15T18:10:12.264Z,48.40
2022-11-15T18:20:12.306Z,49.30
2022-11-15T18:30:12.379Z,58.20
2022-11-15T18:40:12.304Z,50.50
2022-11-15T18:50:12.298Z,51.40
2022-11-15T19:00:12.282Z,53.50
2022-11-15T19:10:12.305Z,53.50
2022-11-15T19:30:12.310Z,59.70
2022-11-15T19:40:12.314Z,69.60
2022-11-15T19:50:12.493Z,50.60
2022-11-15T20:00:12.292Z,58.20
2022-11-15T20:10:14.706Z,62.40
2022-11-15T20:20:12.292Z,71.30
2022-11-15T20:30:12.324Z,68.20
2022-11-15T20:40:12.343Z,73.70
2022-11-15T20:50:40.423Z,68.80
2022-11-15T21:00:12.374Z,67.00
2022-11-15T21:10:12.360Z,70.30
2022-11-15T21:20:12.361Z,63.30
2022-11-15T21:30:12.330Z,63.30
2022-11-15T21:40:12.358Z,74.30
2022-11-15T21:50:12.342Z,79.00
2022-11-15T22:00:12.338Z,74.30
2022-11-15T22:10:12.342Z,79.50
2022-11-15T22:20:42.462Z,75.30
2022-11-15T22:30:12.392Z,76.20
2022-11-15T22:40:12.382Z,73.60
2022-11-15T22:50:12.386Z,87.10
2022-11-15T23:00:12.408Z,60.00
2022-11-15T23:10:12.396Z,64.30
2022-11-15T23:20:36.868Z,71.50
2022-11-15T23:30:12.389Z,61.50
2022-11-15T23:40:12.398Z,65.70
2022-11-15T23:50:12.384Z,77.20
